createdAt,value
2022-09-11T00:00:40.015Z,2.40
2022-09-11T00:03:10.491Z,2.87
2022-09-11T00:05:41.978Z,2.10
2022-09-11T00:08:14.155Z,2.30
2022-09-11T00:10:47.981Z,2.37
2022-09-11T00:13:25.110Z,2.50
2022-09-11T00:15:55.614Z,2.20
2022-09-11T00:18:28.367Z,2.90
2022-09-11T00:21:00.815Z,2.93
2022-09-11T00:23:32.097Z,2.00
2022-09-11T00:26:06.239Z,2.97
2022-09-11T00:28:39.742Z,2.40
2022-09-11T00:31:12.586Z,2.23
2022-09-11T00:33:44.074Z,2.30
2022-09-11T00:36:17.376Z,4.10
2022-09-11T00:38:48.561Z,2.47
2022-09-11T00:41:25.623Z,2.80
2022-09-11T00:44:03.623Z,2.60
2022-09-11T00:46:40.075Z,2.40
2022-09-11T00:49:22.353Z,2.20
2022-09-11T00:51:57.353Z,2.00
2022-09-11T00:54:32.750Z,2.10
2022-09-11T00:57:07.598Z,1.90
2022-09-11T00:59:45.892Z,2.20
2022-09-11T01:02:27.187Z,2.00
2022-09-11T01:04:58.120Z,2.43
2022-09-11T01:07:31.850Z,2.40
2022-09-11T01:10:03.393Z,2.20
2022-09-11T01:12:46.875Z,2.40
2022-09-11T01:15:33.123Z,2.20
2022-09-11T01:18:13.314Z,2.43
2022-09-11T01:21:12.018Z,2.07
2022-09-11T01:24:23.122Z,2.70
2022-09-11T01:27:12.960Z,2.30
2022-09-11T01:29:53.458Z,2.60
2022-09-11T01:32:31.772Z,2.30
2022-09-11T01:35:12.068Z,2.83
2022-09-11T01:37:50.899Z,2.40
2022-09-11T01:40:27.817Z,2.50
2022-09-11T01:43:09.557Z,2.53
2022-09-11T01:45:47.783Z,2.67
2022-09-11T01:48:25.828Z,3.43
2022-09-11T01:51:01.203Z,2.63
2022-09-11T01:53:39.963Z,3.03
2022-09-11T01:56:19.548Z,2.50
2022-09-11T01:58:56.176Z,2.70
2022-09-11T02:01:36.118Z,3.20
2022-09-11T02:04:13.464Z,2.40
2022-09-11T02:06:50.604Z,2.63
2022-09-11T02:09:28.590Z,3.50
2022-09-11T02:12:02.746Z,3.53
2022-09-11T02:14:44.223Z,3.33
2022-09-11T02:17:27.468Z,3.20
2022-09-11T02:20:00.676Z,3.67
2022-09-11T02:22:31.020Z,2.80
2022-09-11T02:25:07.740Z,3.03
2022-09-11T02:27:38.064Z,2.87
2022-09-11T02:30:12.396Z,2.77
2022-09-11T02:32:47.514Z,3.40
2022-09-11T02:35:18.643Z,3.03
2022-09-11T02:38:00.854Z,3.40
2022-09-11T02:40:49.681Z,3.83
2022-09-11T02:43:58.572Z,3.30
2022-09-11T02:46:59.537Z,3.47
2022-09-11T02:49:52.568Z,3.07
2022-09-11T02:52:37.476Z,4.40
2022-09-11T02:55:16.255Z,2.90
2022-09-11T02:57:58.570Z,3.30
2022-09-11T03:00:29.170Z,3.60
2022-09-11T03:03:00.988Z,3.53
2022-09-11T03:05:33.763Z,3.43
2022-09-11T03:08:05.492Z,3.70
2022-09-11T03:10:35.611Z,3.30
2022-09-11T03:13:05.604Z,3.70
2022-09-11T03:15:35.559Z,3.67
2022-09-11T03:18:05.672Z,3.30
2022-09-11T03:20:38.972Z,3.63
2022-09-11T03:23:11.212Z,3.83
2022-09-11T03:25:42.644Z,3.50
2022-09-11T03:28:14.139Z,2.57
2022-09-11T03:30:44.894Z,3.57
2022-09-11T03:33:15.105Z,3.30
2022-09-11T03:35:49.560Z,3.83
2022-09-11T03:38:19.991Z,3.23
2022-09-11T03:40:50.414Z,3.40
2022-09-11T03:43:20.353Z,3.30
2022-09-11T03:45:52.641Z,4.10
2022-09-11T03:48:23.265Z,3.90
2022-09-11T03:50:56.221Z,3.43
2022-09-11T03:53:26.745Z,3.27
2022-09-11T03:55:57.036Z,3.27
2022-09-11T03:58:27.143Z,3.53
2022-09-11T04:00:57.131Z,3.77
2022-09-11T04:03:27.812Z,3.63
2022-09-11T04:06:05.411Z,3.60
2022-09-11T04:08:37.561Z,3.60
2022-09-11T04:11:09.913Z,4.10
2022-09-11T04:13:43.809Z,3.43
2022-09-11T04:16:19.958Z,3.80
2022-09-11T04:18:54.396Z,3.27
2022-09-11T04:21:27.762Z,3.60
2022-09-11T04:24:00.506Z,3.37
2022-09-11T04:26:35.577Z,4.13
2022-09-11T04:29:17.786Z,3.57
2022-09-11T04:31:48.559Z,4.07
2022-09-11T04:34:19.797Z,4.03
2022-09-11T04:36:52.379Z,4.10
2022-09-11T04:39:24.736Z,4.80
2022-09-11T04:41:55.438Z,3.83
2022-09-11T04:44:26.374Z,3.27
2022-09-11T04:46:59.250Z,4.80
2022-09-11T04:49:29.326Z,4.17
2022-09-11T04:52:06.072Z,4.30
2022-09-11T04:54:37.015Z,4.30
2022-09-11T04:57:10.359Z,4.37
2022-09-11T04:59:41.517Z,5.00
2022-09-11T05:02:15.456Z,4.50
2022-09-11T05:04:48.862Z,4.80
2022-09-11T05:07:22.714Z,5.00
2022-09-11T05:09:54.924Z,5.03
2022-09-11T05:12:25.630Z,4.67
2022-09-11T05:14:55.562Z,4.43
2022-09-11T05:17:25.749Z,4.13
2022-09-11T05:19:56.611Z,3.90
2022-09-11T05:22:29.367Z,4.70
2022-09-11T05:25:02.064Z,5.90
2022-09-11T05:27:32.120Z,4.57
2022-09-11T05:30:02.156Z,4.77
2022-09-11T05:32:32.439Z,5.10
2022-09-11T05:35:05.074Z,5.27
2022-09-11T05:37:37.666Z,4.67
2022-09-11T05:40:09.761Z,4.53
2022-09-11T05:42:39.720Z,4.87
2022-09-11T05:45:10.800Z,4.43
2022-09-11T05:47:40.882Z,3.93
2022-09-11T05:50:12.058Z,5.83
2022-09-11T05:52:44.607Z,3.90
2022-09-11T05:55:14.554Z,4.00
2022-09-11T05:57:44.790Z,4.20
2022-09-11T06:00:17.755Z,4.10
2022-09-11T06:02:54.347Z,4.17
2022-09-11T06:05:27.360Z,4.37
2022-09-11T06:08:02.009Z,5.00
2022-09-11T06:10:32.366Z,5.50
2022-09-11T06:13:02.886Z,4.83
2022-09-11T06:15:46.653Z,5.57
2022-09-11T06:18:18.324Z,5.50
2022-09-11T06:20:59.207Z,5.33
2022-09-11T06:23:33.245Z,5.90
2022-09-11T06:26:10.013Z,5.87
2022-09-11T06:28:43.716Z,5.67
2022-09-11T06:31:18.257Z,6.27
2022-09-11T06:33:51.114Z,6.00
2022-09-11T06:36:24.461Z,6.40
2022-09-11T06:39:00.126Z,6.33
2022-09-11T06:41:32.842Z,5.63
2022-09-11T06:44:10.575Z,5.97
2022-09-11T06:46:42.323Z,6.83
2022-09-11T06:49:13.420Z,6.80
2022-09-11T06:52:01.706Z,6.27
2022-09-11T06:54:36.130Z,6.50
2022-09-11T06:57:11.759Z,6.23
2022-09-11T06:59:43.171Z,6.87
2022-09-11T07:02:13.570Z,8.27
2022-09-11T07:04:43.600Z,7.27
2022-09-11T07:07:14.189Z,8.57
2022-09-11T07:09:47.869Z,7.43
2022-09-11T07:12:19.237Z,8.30
2022-09-11T07:14:51.429Z,7.77
2022-09-11T07:17:21.964Z,8.10
2022-09-11T07:19:54.408Z,7.13
2022-09-11T07:22:24.481Z,8.97
2022-09-11T07:24:57.113Z,7.33
2022-09-11T07:27:27.161Z,9.00
2022-09-11T07:29:57.169Z,7.97
2022-09-11T07:32:31.186Z,8.60
2022-09-11T07:35:02.569Z,8.30
2022-09-11T07:37:32.669Z,7.87
2022-09-11T07:40:06.359Z,8.53
2022-09-11T07:42:36.888Z,7.30
2022-09-11T07:45:08.464Z,7.47
2022-09-11T07:47:38.635Z,7.60
2022-09-11T07:50:11.222Z,8.57
2022-09-11T07:52:42.608Z,7.90
2022-09-11T07:55:15.446Z,8.17
2022-09-11T07:57:47.246Z,8.53
2022-09-11T08:00:18.958Z,8.37
2022-09-11T08:02:51.750Z,7.97
2022-09-11T08:05:31.894Z,7.97
2022-09-11T08:08:02.296Z,8.37
2022-09-11T08:10:36.184Z,7.30
2022-09-11T08:13:09.457Z,8.10
2022-09-11T08:15:40.070Z,7.93
2022-09-11T08:18:10.995Z,8.67
2022-09-11T08:20:41.830Z,8.23
2022-09-11T08:23:12.543Z,7.17
2022-09-11T08:25:46.578Z,8.30
2022-09-11T08:28:17.750Z,7.93
2022-09-11T08:30:47.789Z,9.03
2022-09-11T08:33:19.428Z,7.90
2022-09-11T08:35:49.813Z,7.97
2022-09-11T08:38:20.654Z,7.20
2022-09-11T08:40:54.087Z,8.73
2022-09-11T08:43:31.001Z,8.00
2022-09-11T08:46:09.411Z,7.07
2022-09-11T08:48:57.461Z,8.53
2022-09-11T08:51:28.771Z,7.50
2022-09-11T08:53:59.680Z,7.40
2022-09-11T08:56:36.217Z,7.73
2022-09-11T08:59:27.095Z,5.30
2022-09-11T09:02:11.394Z,6.50
2022-09-11T09:05:05.461Z,6.00
2022-09-11T09:07:52.519Z,5.70
2022-09-11T09:10:37.506Z,6.03
2022-09-11T09:13:33.598Z,6.73
2022-09-11T09:16:21.027Z,6.00
2022-09-11T09:19:00.894Z,6.80
2022-09-11T09:21:39.221Z,6.87
2022-09-11T09:24:19.561Z,7.40
2022-09-11T09:26:57.587Z,6.80
2022-09-11T09:29:41.274Z,7.50
2022-09-11T09:32:22.849Z,7.07
2022-09-11T09:34:58.365Z,7.67
2022-09-11T09:37:31.305Z,8.70
2022-09-11T09:40:11.043Z,8.07
2022-09-11T09:43:17.269Z,8.93
2022-09-11T09:46:16.670Z,7.00
2022-09-11T09:48:46.727Z,6.80
2022-09-11T09:51:17.782Z,6.73
2022-09-11T09:53:54.011Z,5.97
2022-09-11T09:56:26.433Z,5.97
2022-09-11T09:59:04.649Z,6.30
2022-09-11T10:01:54.095Z,5.67
2022-09-11T10:04:27.147Z,5.20
2022-09-11T10:07:08.506Z,5.10
2022-09-11T10:09:39.270Z,5.67
2022-09-11T10:12:18.068Z,5.07
2022-09-11T10:14:56.292Z,4.63
2022-09-11T10:17:37.163Z,6.00
2022-09-11T10:20:26.818Z,5.40
2022-09-11T10:22:58.692Z,6.47
2022-09-11T10:25:30.533Z,5.63
2022-09-11T10:28:10.171Z,6.40
2022-09-11T10:30:44.238Z,6.77
2022-09-11T10:33:33.686Z,6.13
2022-09-11T10:36:09.146Z,6.87
2022-09-11T10:38:49.293Z,5.90
2022-09-11T10:41:23.349Z,6.00
2022-09-11T10:44:00.497Z,5.73
2022-09-11T10:46:40.713Z,7.30
2022-09-11T10:49:22.274Z,7.20
2022-09-11T10:52:05.596Z,6.30
2022-09-11T10:55:00.677Z,5.47
2022-09-11T10:57:37.344Z,6.33
2022-09-11T11:00:19.241Z,5.53
2022-09-11T11:02:53.246Z,6.37
2022-09-11T11:05:37.863Z,5.90
2022-09-11T11:08:30.100Z,6.30
2022-09-11T11:11:24.305Z,6.50
2022-09-11T11:14:28.925Z,6.83
2022-09-11T11:17:13.382Z,6.87
2022-09-11T11:20:10.975Z,5.30
2022-09-11T11:23:22.334Z,6.33
2022-09-11T11:26:07.911Z,5.87
2022-09-11T11:29:07.226Z,5.23
2022-09-11T11:31:52.563Z,5.67
2022-09-11T11:34:40.078Z,6.67
2022-09-11T11:37:16.231Z,6.00
2022-09-11T11:40:00.532Z,5.10
2022-09-11T11:42:38.426Z,5.27
2022-09-11T11:45:20.346Z,5.43
2022-09-11T11:47:52.959Z,6.23
2022-09-11T11:50:32.096Z,6.07
2022-09-11T11:53:14.082Z,6.53
2022-09-11T11:56:01.136Z,6.13
2022-09-11T11:58:48.278Z,6.20
2022-09-11T12:01:27.075Z,6.07
2022-09-11T12:04:07.065Z,5.67
2022-09-11T12:06:37.009Z,4.83
2022-09-11T12:09:11.875Z,5.07
2022-09-11T12:11:48.913Z,5.20
2022-09-11T12:14:32.270Z,4.90
2022-09-11T12:17:22.769Z,5.30
2022-09-11T12:20:32.586Z,6.30
2022-09-11T12:23:03.476Z,5.40
2022-09-11T12:26:18.756Z,5.67
2022-09-11T12:28:52.545Z,8.37
2022-09-11T12:31:22.845Z,5.97
2022-09-11T12:33:57.677Z,6.30
2022-09-11T12:36:54.104Z,5.83
2022-09-11T12:39:37.740Z,5.60
2022-09-11T12:42:57.794Z,7.17
2022-09-11T12:45:39.474Z,5.53
2022-09-11T12:48:14.594Z,5.07
2022-09-11T12:50:54.216Z,5.87
2022-09-11T12:53:30.312Z,6.10
2022-09-11T12:56:05.687Z,5.30
2022-09-11T12:58:41.780Z,5.37
2022-09-11T13:01:36.008Z,6.00
2022-09-11T13:04:19.277Z,5.07
2022-09-11T13:06:54.871Z,5.43
2022-09-11T13:09:31.333Z,5.17
2022-09-11T13:12:52.890Z,5.57
2022-09-11T13:15:44.737Z,5.37
2022-09-11T13:18:35.570Z,5.60
2022-09-11T13:21:20.336Z,5.40
2022-09-11T13:23:53.136Z,6.00
2022-09-11T13:26:32.815Z,7.10
2022-09-11T13:29:04.324Z,6.73
2022-09-11T13:31:37.940Z,5.43
2022-09-11T13:34:21.993Z,6.87
2022-09-11T13:36:56.435Z,5.50
2022-09-11T13:39:29.590Z,5.30
2022-09-11T13:42:05.323Z,5.63
2022-09-11T13:44:46.521Z,6.30
2022-09-11T13:47:22.946Z,6.33
2022-09-11T13:50:00.830Z,6.20
2022-09-11T13:52:36.955Z,5.90
2022-09-11T13:55:19.286Z,6.00
2022-09-11T13:57:56.849Z,6.77
2022-09-11T14:00:48.278Z,6.63
2022-09-11T14:03:28.092Z,7.20
2022-09-11T14:06:04.262Z,6.90
2022-09-11T14:08:39.365Z,6.30
2022-09-11T14:11:13.099Z,6.43
2022-09-11T14:13:49.626Z,7.23
2022-09-11T14:16:29.439Z,7.27
2022-09-11T14:19:09.161Z,6.10
2022-09-11T14:21:46.633Z,6.90
2022-09-11T14:24:32.850Z,7.00
2022-09-11T14:27:04.575Z,6.10
2022-09-11T14:29:37.558Z,6.57
2022-09-11T14:32:34.279Z,6.07
2022-09-11T14:35:06.567Z,6.73
2022-09-11T14:37:46.100Z,6.17
2022-09-11T14:40:21.250Z,6.80
2022-09-11T14:42:51.865Z,7.03
2022-09-11T14:45:26.012Z,6.80
2022-09-11T14:47:56.483Z,6.17
2022-09-11T14:50:26.894Z,6.10
2022-09-11T14:52:59.907Z,5.17
2022-09-11T14:55:30.491Z,6.57
2022-09-11T14:58:00.472Z,6.10
2022-09-11T15:00:32.006Z,5.60
2022-09-11T15:03:04.207Z,5.67
2022-09-11T15:05:34.793Z,5.23
2022-09-11T15:08:07.468Z,6.03
2022-09-11T15:10:37.607Z,5.50
2022-09-11T15:13:07.652Z,4.50
2022-09-11T15:15:37.823Z,5.23
2022-09-11T15:18:07.867Z,5.33
2022-09-11T15:20:37.969Z,4.40
2022-09-11T15:23:10.651Z,5.10
2022-09-11T15:25:41.061Z,5.53
2022-09-11T15:28:11.329Z,5.20
2022-09-11T15:30:42.953Z,5.30
2022-09-11T15:33:13.630Z,4.97
2022-09-11T15:35:43.947Z,5.07
2022-09-11T15:38:16.802Z,5.50
2022-09-11T15:40:46.798Z,5.60
2022-09-11T15:43:16.860Z,6.10
2022-09-11T15:45:46.882Z,4.80
2022-09-11T15:48:17.348Z,5.40
2022-09-11T15:50:47.546Z,6.57
2022-09-11T15:53:20.065Z,5.73
2022-09-11T15:55:50.010Z,5.47
2022-09-11T15:58:19.922Z,5.37
2022-09-11T16:00:49.992Z,5.83
2022-09-11T16:03:21.789Z,5.43
2022-09-11T16:05:51.774Z,5.77
2022-09-11T16:08:24.517Z,5.70
2022-09-11T16:10:55.086Z,5.57
2022-09-11T16:13:25.351Z,5.47
2022-09-11T16:16:05.467Z,5.47
2022-09-11T16:18:39.836Z,6.10
2022-09-11T16:21:10.520Z,5.83
2022-09-11T16:23:44.242Z,6.00
2022-09-11T16:26:20.782Z,5.10
2022-09-11T16:28:51.265Z,6.40
2022-09-11T16:31:21.916Z,5.73
2022-09-11T16:33:56.071Z,7.20
2022-09-11T16:36:28.283Z,6.70
2022-09-11T16:39:00.826Z,6.23
2022-09-11T16:41:30.814Z,5.70
2022-09-11T16:44:00.769Z,6.17
2022-09-11T16:46:30.958Z,5.87
2022-09-11T16:49:01.927Z,5.50
2022-09-11T16:51:33.401Z,5.90
2022-09-11T16:54:06.345Z,5.80
2022-09-11T16:56:36.475Z,5.90
2022-09-11T16:59:07.203Z,5.90
2022-09-11T17:01:37.599Z,5.60
2022-09-11T17:04:07.658Z,6.10
2022-09-11T17:06:37.661Z,5.50
2022-09-11T17:09:10.179Z,5.60
2022-09-11T17:11:40.114Z,5.27
2022-09-11T17:14:10.367Z,6.40
2022-09-11T17:16:41.666Z,6.37
2022-09-11T17:19:12.770Z,6.23
2022-09-11T17:21:42.758Z,5.40
2022-09-11T17:24:18.010Z,5.80
2022-09-11T17:26:48.279Z,5.60
2022-09-11T17:29:19.570Z,6.03
2022-09-11T17:32:01.073Z,6.37
2022-09-11T17:34:41.037Z,6.90
2022-09-11T17:37:11.089Z,7.10
2022-09-11T17:39:44.217Z,9.40
2022-09-11T17:42:14.319Z,6.50
2022-09-11T17:44:44.365Z,7.57
2022-09-11T17:47:14.300Z,6.03
2022-09-11T17:49:45.392Z,8.20
2022-09-11T17:52:15.615Z,7.17
2022-09-11T17:54:49.085Z,6.90
2022-09-11T17:57:19.091Z,7.27
2022-09-11T17:59:50.550Z,7.40
2022-09-11T18:02:21.999Z,6.70
2022-09-11T18:04:52.381Z,6.80
2022-09-11T18:07:22.482Z,7.60
2022-09-11T18:09:56.518Z,7.40
2022-09-11T18:12:28.547Z,7.90
2022-09-11T18:15:00.330Z,9.67
2022-09-11T18:17:30.274Z,6.97
2022-09-11T18:20:00.251Z,7.93
2022-09-11T18:22:30.303Z,8.00
2022-09-11T18:25:02.843Z,8.03
2022-09-11T18:27:33.031Z,8.33
2022-09-11T18:30:03.017Z,7.60
2022-09-11T18:32:33.108Z,8.73
2022-09-11T18:35:04.445Z,10.23
2022-09-11T18:37:34.391Z,10.00
2022-09-11T18:40:07.897Z,7.97
2022-09-11T18:42:37.869Z,8.53
2022-09-11T18:45:10.256Z,8.17
2022-09-11T18:47:40.557Z,8.20
2022-09-11T18:50:12.220Z,7.60
2022-09-11T18:52:42.180Z,8.17
2022-09-11T18:55:15.384Z,8.07
2022-09-11T18:57:48.924Z,8.07
2022-09-11T19:00:21.027Z,8.30
2022-09-11T19:02:52.846Z,8.93
2022-09-11T19:05:23.220Z,8.20
2022-09-11T19:07:55.302Z,8.63
2022-09-11T19:10:28.821Z,10.03
2022-09-11T19:13:00.214Z,9.00
2022-09-11T19:15:31.270Z,8.50
2022-09-11T19:18:01.591Z,8.90
2022-09-11T19:20:31.550Z,9.50
2022-09-11T19:23:03.570Z,9.00
2022-09-11T19:25:38.410Z,9.33
2022-09-11T19:28:08.400Z,11.17
2022-09-11T19:30:42.596Z,10.47
2022-09-11T19:33:13.112Z,10.07
2022-09-11T19:35:43.062Z,10.93
2022-09-11T19:38:13.162Z,9.67
2022-09-11T19:40:45.935Z,10.70
2022-09-11T19:43:15.907Z,9.77
2022-09-11T19:45:45.920Z,9.40
2022-09-11T19:48:15.985Z,10.37
2022-09-11T19:50:46.953Z,10.33
2022-09-11T19:53:17.136Z,10.00
2022-09-11T19:55:49.674Z,10.60
2022-09-11T19:58:23.418Z,9.53
2022-09-11T20:00:54.606Z,9.63
2022-09-11T20:03:24.980Z,10.83
2022-09-11T20:05:57.363Z,9.57
2022-09-11T20:08:27.508Z,10.20
2022-09-11T20:11:00.455Z,10.23
2022-09-11T20:13:31.090Z,9.53
2022-09-11T20:16:07.546Z,10.77
2022-09-11T20:18:38.010Z,14.37
2022-09-11T20:21:11.535Z,11.07
2022-09-11T20:23:42.534Z,12.70
2022-09-11T20:26:18.767Z,9.93
2022-09-11T20:28:50.804Z,13.67
2022-09-11T20:31:24.161Z,11.80
2022-09-11T20:33:54.229Z,10.50
2022-09-11T20:36:27.199Z,10.93
2022-09-11T20:39:00.662Z,11.27
2022-09-11T20:41:35.823Z,11.80
2022-09-11T20:44:07.230Z,13.20
2022-09-11T20:46:37.303Z,12.20
2022-09-11T20:49:08.565Z,11.50
2022-09-11T20:51:38.628Z,10.80
2022-09-11T20:54:08.823Z,10.00
2022-09-11T20:56:41.496Z,12.73
2022-09-11T20:59:11.465Z,12.43
2022-09-11T21:01:41.508Z,11.73
2022-09-11T21:04:12.672Z,11.90
2022-09-11T21:06:42.653Z,11.80
2022-09-11T21:09:14.265Z,10.70
2022-09-11T21:11:47.263Z,11.33
2022-09-11T21:14:19.300Z,11.20
2022-09-11T21:16:49.249Z,13.07
2022-09-11T21:19:19.217Z,12.43
2022-09-11T21:21:49.149Z,13.00
2022-09-11T21:24:19.112Z,11.77
2022-09-11T21:26:51.699Z,12.80
2022-09-11T21:29:21.752Z,13.17
2022-09-11T21:31:52.650Z,13.07
2022-09-11T21:34:22.580Z,14.37
2022-09-11T21:36:52.565Z,13.33
2022-09-11T21:39:22.608Z,14.23
2022-09-11T21:41:55.187Z,13.47
2022-09-11T21:44:25.172Z,13.00
2022-09-11T21:46:55.160Z,11.93
2022-09-11T21:49:25.153Z,14.27
2022-09-11T21:51:55.062Z,13.07
2022-09-11T21:54:28.740Z,13.70
2022-09-11T21:57:03.827Z,12.27
2022-09-11T21:59:34.154Z,13.53
2022-09-11T22:02:04.456Z,11.60
2022-09-11T22:04:34.708Z,11.57
2022-09-11T22:07:05.068Z,12.30
2022-09-11T22:09:35.438Z,13.03
2022-09-11T22:12:08.703Z,13.17
2022-09-11T22:14:38.797Z,14.60
2022-09-11T22:17:08.892Z,12.30
2022-09-11T22:19:39.063Z,12.87
2022-09-11T22:22:09.387Z,11.20
2022-09-11T22:24:39.754Z,12.57
2022-09-11T22:27:13.658Z,12.10
2022-09-11T22:29:46.970Z,12.90
2022-09-11T22:32:17.102Z,13.27
2022-09-11T22:34:47.047Z,13.03
2022-09-11T22:37:17.067Z,13.30
2022-09-11T22:39:47.148Z,12.33
2022-09-11T22:42:19.786Z,13.57
2022-09-11T22:44:50.001Z,14.07
2022-09-11T22:47:20.086Z,12.90
2022-09-11T22:49:50.092Z,14.63
2022-09-11T22:52:20.378Z,14.50
2022-09-11T22:54:50.399Z,13.90
2022-09-11T22:57:22.979Z,13.60
2022-09-11T22:59:53.003Z,13.90
2022-09-11T23:02:22.972Z,14.57
2022-09-11T23:05:05.510Z,14.03
2022-09-11T23:07:35.593Z,14.20
2022-09-11T23:10:05.843Z,14.03
2022-09-11T23:12:38.998Z,13.50
2022-09-11T23:15:10.667Z,14.97
2022-09-11T23:17:40.650Z,15.80
2022-09-11T23:20:12.268Z,16.57
2022-09-11T23:22:42.295Z,17.67
2022-09-11T23:25:13.855Z,16.10
2022-09-11T23:27:47.231Z,16.77
2022-09-11T23:30:17.210Z,17.10
2022-09-11T23:32:47.181Z,17.73
2022-09-11T23:35:17.163Z,16.00
2022-09-11T23:37:47.180Z,18.00
2022-09-11T23:40:17.282Z,17.50
2022-09-11T23:42:49.881Z,17.83
2022-09-11T23:45:20.092Z,15.83
2022-09-11T23:47:50.920Z,16.30
2022-09-11T23:50:21.255Z,17.80
2022-09-11T23:52:51.175Z,17.23
2022-09-11T23:55:22.067Z,17.33
2022-09-11T23:57:55.377Z,18.10
